Time;durP1;ratioP1;P1;durP2;ratioP2;P2;SDS_P1;SDS_P2;PMS_P1;PMS_P2;Temp;Humidity;BMP_temperature;BMP_pressure;BME280_temperature;BME280_humidity;BME280_pressure;Samples;Min_cycle;Max_cycle;Signal;HPM_P1;HPM_P2
2022/07/13 00:00:28;;;;;;;258.90;245.98;;;;;;;;;;5052126;28;20086;-76
2022/07/13 00:02:53;;;;;;;233.77;222.13;;;;;;;;;;5051519;28;20025;-74
2022/07/13 00:05:19;;;;;;;215.35;204.57;;;;;;;;;;5051301;28;20037;-74
2022/07/13 00:07:45;;;;;;;186.18;176.85;;;;;;;;;;5049874;28;20040;-75
2022/07/13 00:10:10;;;;;;;275.98;262.23;;;;;;;;;;5053170;28;20389;-75
2022/07/13 00:12:36;;;;;;;233.27;221.65;;;;;;;;;;5053639;28;20037;-76
2022/07/13 00:15:01;;;;;;;170.48;161.93;;;;;;;;;;5058036;28;20084;-77
2022/07/13 00:17:27;;;;;;;158.95;151.02;;;;;;;;;;5056021;28;20123;-77
2022/07/13 00:19:52;;;;;;;268.13;254.82;;;;;;;;;;5051769;28;20105;-77
2022/07/13 00:22:17;;;;;;;209.98;199.52;;;;;;;;;;5050224;28;20112;-77
2022/07/13 00:24:43;;;;;;;113.28;107.53;;;;;;;;;;5052194;28;20399;-77
2022/07/13 00:27:08;;;;;;;148.75;141.27;;;;;;;;;;5052052;28;20021;-77
2022/07/13 00:29:34;;;;;;;140.63;133.55;;;;;;;;;;5052121;28;20033;-78
2022/07/13 00:31:59;;;;;;;154.25;146.48;;;;;;;;;;5052209;28;20029;-76
2022/07/13 00:34:25;;;;;;;172.45;163.77;;;;;;;;;;5050633;28;20600;-78
2022/07/13 00:36:50;;;;;;;154.55;146.52;;;;;;;;;;5051993;28;20435;-80
2022/07/13 00:39:15;;;;;;;159.55;151.60;;;;;;;;;;5049942;28;20029;-77
2022/07/13 00:41:48;;;;;;;211.20;200.80;;;;;;;;;;5050875;28;20491;-76
2022/07/13 00:44:14;;;;;;;184.32;175.10;;;;;;;;;;5051650;28;20335;-77
2022/07/13 00:46:43;;;;;;;200.40;190.57;;;;;;;;;;5033456;28;20159;-77
2022/07/13 00:49:10;;;;;;;226.52;215.40;;;;;;;;;;5051341;28;20469;-76
2022/07/13 00:51:37;;;;;;;228.75;217.50;;;;;;;;;;5050126;28;20037;-78
2022/07/13 00:54:03;;;;;;;238.73;227.02;;;;;;;;;;5051760;28;20567;-79
2022/07/13 00:56:29;;;;;;;235.57;224.02;;;;;;;;;;5049884;28;20112;-79
2022/07/13 00:58:57;;;;;;;254.48;241.93;;;;;;;;;;5051549;28;20052;-79
2022/07/13 01:01:22;;;;;;;254.70;242.10;;;;;;;;;;5050242;28;20144;-78
2022/07/13 01:03:48;;;;;;;245.75;233.70;;;;;;;;;;5047211;28;20159;-78
2022/07/13 01:06:14;;;;;;;255.30;242.75;;;;;;;;;;5048546;28;20052;-77
2022/07/13 01:08:39;;;;;;;237.63;226.00;;;;;;;;;;5047171;28;20580;-77
2022/07/13 01:11:05;;;;;;;258.48;245.73;;;;;;;;;;5048685;28;20028;-76
2022/07/13 01:13:31;;;;;;;248.60;236.30;;;;;;;;;;5047500;28;20418;-76
2022/07/13 01:15:56;;;;;;;256.17;243.57;;;;;;;;;;5047335;28;20052;-75
2022/07/13 01:18:22;;;;;;;250.05;237.70;;;;;;;;;;5048405;28;20112;-76
2022/07/13 01:20:48;;;;;;;241.20;229.38;;;;;;;;;;5047991;28;20491;-76
2022/07/13 01:23:16;;;;;;;261.58;248.68;;;;;;;;;;5047017;28;20071;-77
2022/07/13 01:25:42;;;;;;;264.25;251.27;;;;;;;;;;5048349;28;20401;-76
2022/07/13 01:28:08;;;;;;;248.55;236.35;;;;;;;;;;5047918;28;20111;-76
2022/07/13 01:30:34;;;;;;;249.10;236.82;;;;;;;;;;5046965;28;20321;-76
2022/07/13 01:32:59;;;;;;;273.30;259.75;;;;;;;;;;5047360;28;20126;-76
2022/07/13 01:35:25;;;;;;;282.55;268.58;;;;;;;;;;5046346;28;20041;-77
2022/07/13 01:37:51;;;;;;;286.58;272.23;;;;;;;;;;5047737;28;20401;-77
2022/07/13 01:40:17;;;;;;;250.85;238.52;;;;;;;;;;5047335;28;20024;-77
2022/07/13 01:42:44;;;;;;;227.38;216.27;;;;;;;;;;5047220;28;20028;-78
2022/07/13 01:45:11;;;;;;;233.52;222.07;;;;;;;;;;5047502;28;20029;-78
2022/07/13 01:47:38;;;;;;;252.68;240.07;;;;;;;;;;5047308;28;20047;-77
2022/07/13 01:50:04;;;;;;;218.98;208.27;;;;;;;;;;5047545;28;20035;-78
2022/07/13 01:52:30;;;;;;;242.45;230.57;;;;;;;;;;5047268;28;20045;-78
2022/07/13 01:54:55;;;;;;;244.00;231.98;;;;;;;;;;5046245;28;20040;-77
2022/07/13 01:57:20;;;;;;;277.20;263.50;;;;;;;;;;5046455;28;20041;-76
2022/07/13 01:59:46;;;;;;;245.50;233.48;;;;;;;;;;5047853;28;20021;-78
2022/07/13 02:02:11;;;;;;;255.70;243.23;;;;;;;;;;5046488;28;20056;-77
2022/07/13 02:04:36;;;;;;;262.65;249.77;;;;;;;;;;5046751;28;20025;-77
2022/07/13 02:07:02;;;;;;;251.57;239.23;;;;;;;;;;5046320;28;20033;-78
2022/07/13 02:09:27;;;;;;;263.20;250.23;;;;;;;;;;5046331;28;20033;-77
2022/07/13 02:11:52;;;;;;;258.83;246.15;;;;;;;;;;5046748;28;20328;-78
2022/07/13 02:14:18;;;;;;;215.95;205.38;;;;;;;;;;5044851;28;20460;-78
2022/07/13 02:16:43;;;;;;;258.58;245.88;;;;;;;;;;5046866;28;20441;-77
2022/07/13 02:19:09;;;;;;;224.02;213.05;;;;;;;;;;5046750;28;20036;-79
2022/07/13 02:21:34;;;;;;;209.35;198.82;;;;;;;;;;5047344;28;20097;-78
2022/07/13 02:24:00;;;;;;;237.02;225.32;;;;;;;;;;5046679;28;20029;-78
2022/07/13 02:26:25;;;;;;;255.23;242.70;;;;;;;;;;5046364;28;20033;-77
2022/07/13 02:28:50;;;;;;;227.25;216.07;;;;;;;;;;5046167;28;20063;-76
2022/07/13 02:31:18;;;;;;;218.55;207.80;;;;;;;;;;5046524;28;20596;-76
2022/07/13 02:33:43;;;;;;;211.93;201.55;;;;;;;;;;5046339;28;20098;-77
2022/07/13 02:36:09;;;;;;;182.95;173.88;;;;;;;;;;5046659;28;20028;-77
2022/07/13 02:38:34;;;;;;;192.40;182.82;;;;;;;;;;5046768;28;20045;-76
2022/07/13 02:40:59;;;;;;;177.43;168.45;;;;;;;;;;5047042;28;20033;-78
2022/07/13 02:43:25;;;;;;;160.13;152.02;;;;;;;;;;5045810;28;20052;-78
2022/07/13 02:45:50;;;;;;;178.00;169.00;;;;;;;;;;5046463;28;20044;-77
2022/07/13 02:48:15;;;;;;;121.78;115.38;;;;;;;;;;5046321;28;20032;-77
2022/07/13 02:50:41;;;;;;;151.23;143.60;;;;;;;;;;5046285;28;20041;-77
2022/07/13 02:53:06;;;;;;;165.02;156.73;;;;;;;;;;5046901;28;20013;-77
2022/07/13 02:55:31;;;;;;;110.82;105.28;;;;;;;;;;5046442;28;20025;-77
2022/07/13 02:57:59;;;;;;;94.00;89.28;;;;;;;;;;5046869;28;20028;-78
2022/07/13 03:00:25;;;;;;;116.05;110.25;;;;;;;;;;5045870;28;20102;-77
2022/07/13 03:02:50;;;;;;;97.28;92.38;;;;;;;;;;5046775;28;20466;-77
2022/07/13 03:05:16;;;;;;;120.25;114.20;;;;;;;;;;5045930;28;20040;-77
2022/07/13 03:07:42;;;;;;;109.65;104.15;;;;;;;;;;5045760;28;20036;-76
2022/07/13 03:10:08;;;;;;;93.65;88.88;;;;;;;;;;5046609;28;20037;-77
2022/07/13 03:12:33;;;;;;;73.20;69.47;;;;;;;;;;5046157;28;20033;-77
2022/07/13 03:14:59;;;;;;;80.85;76.72;;;;;;;;;;5047196;28;20017;-77
2022/07/13 03:17:24;;;;;;;91.50;86.80;;;;;;;;;;5046749;28;20122;-77
2022/07/13 03:19:50;;;;;;;76.07;72.18;;;;;;;;;;5045864;28;20044;-77
2022/07/13 03:22:15;;;;;;;77.43;73.53;;;;;;;;;;5046506;28;20461;-77
2022/07/13 03:24:40;;;;;;;80.63;76.53;;;;;;;;;;5045249;28;20033;-77
2022/07/13 03:27:06;;;;;;;78.65;74.68;;;;;;;;;;5045457;28;20505;-77
2022/07/13 03:29:31;;;;;;;62.80;59.60;;;;;;;;;;5046028;28;20037;-77
2022/07/13 03:31:57;;;;;;;51.22;48.60;;;;;;;;;;5046467;28;20127;-79
2022/07/13 03:34:22;;;;;;;43.08;40.88;;;;;;;;;;5045965;28;20267;-79
2022/07/13 03:36:48;;;;;;;44.67;42.38;;;;;;;;;;5045135;28;20025;-78
2022/07/13 03:39:13;;;;;;;28.08;26.58;;;;;;;;;;5045068;28;20067;-78
2022/07/13 03:41:39;;;;;;;30.52;28.92;;;;;;;;;;5045811;28;20039;-80
2022/07/13 03:44:04;;;;;;;26.83;25.42;;;;;;;;;;5046199;28;20119;-79
2022/07/13 03:46:30;;;;;;;32.60;30.90;;;;;;;;;;5044959;28;20036;-80
2022/07/13 03:48:55;;;;;;;21.13;20.02;;;;;;;;;;5046185;28;20025;-78
2022/07/13 03:51:21;;;;;;;20.50;19.40;;;;;;;;;;5046506;28;20395;-79
2022/07/13 03:53:46;;;;;;;19.92;18.83;;;;;;;;;;5044494;28;20032;-79
2022/07/13 03:56:11;;;;;;;21.25;20.13;;;;;;;;;;5045511;28;20441;-79
2022/07/13 03:58:37;;;;;;;21.67;20.45;;;;;;;;;;5045712;28;20037;-79
2022/07/13 04:01:02;;;;;;;23.60;22.33;;;;;;;;;;5045426;28;20043;-80
2022/07/13 04:03:28;;;;;;;20.05;18.95;;;;;;;;;;5044959;28;20071;-79
2022/07/13 04:05:53;;;;;;;17.77;16.77;;;;;;;;;;5045070;28;20363;-79
2022/07/13 04:08:18;;;;;;;18.13;17.13;;;;;;;;;;5044883;28;20041;-79
2022/07/13 04:10:44;;;;;;;21.45;20.27;;;;;;;;;;5044859;28;20087;-77
2022/07/13 04:13:09;;;;;;;23.25;22.00;;;;;;;;;;5045551;28;20106;-78
2022/07/13 04:15:35;;;;;;;23.20;21.90;;;;;;;;;;5044811;28;20037;-77
2022/07/13 04:18:00;;;;;;;22.00;20.80;;;;;;;;;;5045028;28;20116;-77
2022/07/13 04:20:25;;;;;;;19.95;18.85;;;;;;;;;;5045074;28;20082;-77
2022/07/13 04:22:51;;;;;;;21.60;20.40;;;;;;;;;;5044050;28;20031;-77
2022/07/13 04:25:16;;;;;;;21.05;19.75;;;;;;;;;;5044481;28;20111;-77
2022/07/13 04:27:41;;;;;;;17.67;16.67;;;;;;;;;;5043202;28;20144;-77
2022/07/13 04:30:07;;;;;;;19.83;18.73;;;;;;;;;;5043975;28;20029;-77
2022/07/13 04:32:33;;;;;;;21.20;20.02;;;;;;;;;;5045758;28;20040;-78
2022/07/13 04:34:58;;;;;;;18.67;17.67;;;;;;;;;;5041239;28;20029;-76
2022/07/13 04:37:23;;;;;;;20.73;19.63;;;;;;;;;;5046168;28;20060;-77
2022/07/13 04:39:49;;;;;;;18.38;17.38;;;;;;;;;;5049197;28;20033;-76
2022/07/13 04:42:14;;;;;;;20.42;19.23;;;;;;;;;;5047165;28;20094;-77
2022/07/13 04:44:40;;;;;;;18.27;17.27;;;;;;;;;;5046990;28;20044;-77
2022/07/13 04:47:05;;;;;;;24.70;23.40;;;;;;;;;;5030273;28;20065;-75
2022/07/13 04:49:30;;;;;;;20.00;18.90;;;;;;;;;;5048136;28;20033;-78
2022/07/13 04:51:56;;;;;;;21.92;20.73;;;;;;;;;;5046849;28;20124;-77
2022/07/13 04:54:21;;;;;;;21.52;20.33;;;;;;;;;;5047450;28;20190;-77
2022/07/13 04:56:48;;;;;;;23.70;22.42;;;;;;;;;;5048778;28;20039;-77
2022/07/13 04:59:14;;;;;;;18.52;17.42;;;;;;;;;;5030420;28;20025;-77
2022/07/13 05:01:41;;;;;;;27.80;26.30;;;;;;;;;;5048544;28;20156;-79
2022/07/13 05:04:06;;;;;;;21.58;20.38;;;;;;;;;;5047639;28;20033;-77
2022/07/13 05:06:32;;;;;;;35.65;33.80;;;;;;;;;;5048381;28;20048;-77
2022/07/13 05:08:58;;;;;;;57.20;54.28;;;;;;;;;;5048090;28;20025;-78
2022/07/13 05:11:24;;;;;;;41.88;39.65;;;;;;;;;;5048430;28;20148;-81
2022/07/13 05:13:50;;;;;;;30.52;28.95;;;;;;;;;;5048603;28;20060;-81
2022/07/13 05:16:15;;;;;;;33.72;31.80;;;;;;;;;;5050081;28;20031;-82
2022/07/13 05:18:40;;;;;;;51.25;48.58;;;;;;;;;;5049708;28;20527;-81
2022/07/13 05:21:06;;;;;;;60.83;57.67;;;;;;;;;;5050524;28;20029;-82
2022/07/13 05:23:31;;;;;;;33.08;31.08;;;;;;;;;;5049833;28;20029;-81
2022/07/13 05:25:58;;;;;;;32.95;31.20;;;;;;;;;;5048068;28;20028;-78
2022/07/13 05:28:23;;;;;;;71.25;67.55;;;;;;;;;;5049291;28;20051;-79
2022/07/13 05:30:49;;;;;;;69.90;66.30;;;;;;;;;;5048178;28;20025;-80
2022/07/13 05:33:16;;;;;;;121.85;115.53;;;;;;;;;;5048185;28;20040;-80
2022/07/13 05:35:42;;;;;;;115.47;109.55;;;;;;;;;;5047903;28;20040;-80
2022/07/13 05:38:08;;;;;;;79.10;75.05;;;;;;;;;;5047729;28;20039;-80
2022/07/13 05:40:33;;;;;;;76.97;72.90;;;;;;;;;;5048636;28;20844;-79
2022/07/13 05:42:58;;;;;;;80.22;76.13;;;;;;;;;;5047272;28;20042;-79
2022/07/13 05:45:25;;;;;;;55.55;52.70;;;;;;;;;;5047647;28;20041;-79
2022/07/13 05:47:51;;;;;;;60.70;57.60;;;;;;;;;;5048475;28;20135;-80
2022/07/13 05:50:16;;;;;;;63.72;60.47;;;;;;;;;;5048058;28;20036;-78
2022/07/13 05:52:41;;;;;;;118.63;112.68;;;;;;;;;;5050269;28;20067;-78
2022/07/13 05:55:08;;;;;;;124.63;118.40;;;;;;;;;;5033729;28;20425;-74
2022/07/13 05:57:34;;;;;;;143.88;136.73;;;;;;;;;;5049321;28;20037;-78
2022/07/13 05:59:59;;;;;;;134.10;127.38;;;;;;;;;;5055215;28;20074;-78
2022/07/13 06:02:25;;;;;;;177.77;168.90;;;;;;;;;;5047129;28;20083;-79
2022/07/13 06:04:50;;;;;;;146.43;139.07;;;;;;;;;;5046951;28;20040;-76
2022/07/13 06:07:15;;;;;;;165.23;157.07;;;;;;;;;;5046208;28;20028;-79
2022/07/13 06:09:41;;;;;;;119.43;113.50;;;;;;;;;;5044990;28;20115;-76
2022/07/13 06:12:07;;;;;;;134.95;128.25;;;;;;;;;;5048024;28;20439;-76
2022/07/13 06:14:32;;;;;;;147.75;140.40;;;;;;;;;;5046904;28;20087;-76
2022/07/13 06:16:58;;;;;;;131.77;125.22;;;;;;;;;;5047031;28;20060;-76
2022/07/13 06:19:23;;;;;;;181.13;172.20;;;;;;;;;;5046395;28;20025;-80
2022/07/13 06:21:49;;;;;;;119.63;113.68;;;;;;;;;;5049436;28;20059;-79
2022/07/13 06:24:14;;;;;;;110.28;104.80;;;;;;;;;;5047955;28;20039;-78
2022/07/13 06:26:39;;;;;;;120.60;114.57;;;;;;;;;;5045480;28;20044;-78
2022/07/13 06:29:05;;;;;;;154.82;147.15;;;;;;;;;;5046446;28;20032;-80
2022/07/13 06:31:30;;;;;;;238.82;226.95;;;;;;;;;;5046195;28;20618;-75
2022/07/13 06:33:56;;;;;;;112.80;107.07;;;;;;;;;;5047595;28;20426;-73
2022/07/13 06:36:21;;;;;;;122.10;116.00;;;;;;;;;;5046274;28;20049;-75
2022/07/13 06:38:47;;;;;;;128.27;121.90;;;;;;;;;;5045462;28;20124;-75
2022/07/13 06:41:12;;;;;;;154.63;147.00;;;;;;;;;;5047339;28;20082;-77
2022/07/13 06:43:38;;;;;;;118.55;112.57;;;;;;;;;;5046332;28;20131;-79
2022/07/13 06:46:04;;;;;;;241.25;229.23;;;;;;;;;;5045767;28;20075;-77
2022/07/13 06:48:29;;;;;;;248.52;236.23;;;;;;;;;;5046424;28;20532;-78
2022/07/13 06:50:55;;;;;;;143.95;136.65;;;;;;;;;;5047384;28;20031;-77
2022/07/13 06:53:20;;;;;;;307.83;292.10;;;;;;;;;;5048744;28;20383;-73
2022/07/13 06:55:45;;;;;;;283.35;269.20;;;;;;;;;;5051872;28;20032;-76
2022/07/13 06:58:11;;;;;;;288.52;273.75;;;;;;;;;;5047568;28;20461;-72
2022/07/13 07:00:36;;;;;;;220.85;209.50;;;;;;;;;;5044798;28;20029;-74
2022/07/13 07:03:02;;;;;;;370.70;351.58;;;;;;;;;;5046133;28;20040;-74
2022/07/13 07:05:27;;;;;;;363.02;344.40;;;;;;;;;;5049902;28;20033;-72
2022/07/13 07:07:52;;;;;;;306.25;290.23;;;;;;;;;;5046401;28;20033;-74
2022/07/13 07:10:18;;;;;;;360.83;342.20;;;;;;;;;;5046159;28;20477;-74
2022/07/13 07:12:43;;;;;;;102.38;97.25;;;;;;;;;;5046372;28;20052;-75
2022/07/13 07:15:09;;;;;;;108.75;103.30;;;;;;;;;;5045788;28;20087;-75
2022/07/13 07:17:43;;;;;;;138.75;131.77;;;;;;;;;;5045113;28;20079;-73
2022/07/13 07:20:09;;;;;;;145.32;137.82;;;;;;;;;;5060934;28;20017;-74
2022/07/13 07:22:34;;;;;;;200.82;190.65;;;;;;;;;;5037481;28;20047;-75
2022/07/13 07:25:00;;;;;;;182.45;173.00;;;;;;;;;;5046137;28;20028;-74
2022/07/13 07:27:25;;;;;;;308.73;292.67;;;;;;;;;;5046302;28;20036;-73
2022/07/13 07:29:51;;;;;;;336.45;319.05;;;;;;;;;;5046025;28;20033;-76
2022/07/13 07:32:16;;;;;;;195.38;185.73;;;;;;;;;;5046276;28;20170;-75
2022/07/13 07:34:41;;;;;;;241.88;230.07;;;;;;;;;;5044886;28;20024;-75
2022/07/13 07:37:07;;;;;;;178.20;169.23;;;;;;;;;;5043631;28;20825;-75
2022/07/13 07:39:35;;;;;;;159.82;151.60;;;;;;;;;;5036845;28;20158;-74
2022/07/13 07:42:00;;;;;;;226.90;215.05;;;;;;;;;;5040793;28;20033;-75
2022/07/13 07:44:26;;;;;;;168.95;160.63;;;;;;;;;;5040073;28;20328;-74
2022/07/13 07:46:51;;;;;;;309.17;293.88;;;;;;;;;;5042208;28;20094;-74
2022/07/13 07:49:16;;;;;;;215.82;204.98;;;;;;;;;;5042169;28;20072;-74
2022/07/13 07:51:42;;;;;;;218.63;207.82;;;;;;;;;;5042833;28;20036;-75
2022/07/13 07:54:07;;;;;;;227.88;216.55;;;;;;;;;;5040851;28;20101;-74
2022/07/13 07:56:33;;;;;;;302.17;287.17;;;;;;;;;;5042271;28;20075;-73
2022/07/13 07:58:58;;;;;;;259.15;246.43;;;;;;;;;;5042408;28;20538;-74
2022/07/13 08:01:23;;;;;;;184.55;175.15;;;;;;;;;;5039947;28;20029;-76
2022/07/13 08:03:49;;;;;;;219.90;209.10;;;;;;;;;;5025637;28;20017;-74
2022/07/13 08:06:16;;;;;;;157.13;149.30;;;;;;;;;;5041433;28;20041;-74
2022/07/13 08:08:41;;;;;;;124.32;117.90;;;;;;;;;;5042096;28;20534;-74
2022/07/13 08:11:09;;;;;;;102.72;97.60;;;;;;;;;;5043223;28;20029;-75
2022/07/13 08:13:35;;;;;;;118.30;112.40;;;;;;;;;;5045416;28;20110;-74
2022/07/13 08:16:02;;;;;;;130.23;123.78;;;;;;;;;;5046224;28;20036;-74
2022/07/13 08:18:28;;;;;;;198.38;188.57;;;;;;;;;;5045105;28;20482;-75
2022/07/13 08:20:53;;;;;;;110.88;105.38;;;;;;;;;;5044836;28;20028;-75
2022/07/13 08:26:02;;;;;;;104.22;99.07;;;;;;;;;;5046322;28;20032;-73
2022/07/13 08:28:28;;;;;;;149.98;142.50;;;;;;;;;;5046462;28;20041;-74
2022/07/13 08:30:53;;;;;;;107.38;102.03;;;;;;;;;;5044724;28;20119;-74
2022/07/13 08:38:34;;;;;;;114.45;108.72;;;;;;;;;;5045516;28;20144;-74
2022/07/13 08:38:48;;;;;;;93.05;88.43;;;;;;;;;;5048821;28;20036;-74
2022/07/13 08:41:14;;;;;;;98.60;93.70;;;;;;;;;;5049555;28;20040;-73
2022/07/13 08:43:39;;;;;;;92.53;87.82;;;;;;;;;;5048438;28;20040;-73
2022/07/13 08:46:07;;;;;;;93.80;89.18;;;;;;;;;;5048815;28;20033;-73
2022/07/13 08:48:36;;;;;;;102.35;97.28;;;;;;;;;;5048319;28;20473;-73
2022/07/13 08:51:03;;;;;;;97.07;92.18;;;;;;;;;;5048970;28;20033;-73
2022/07/13 08:53:28;;;;;;;83.53;79.40;;;;;;;;;;5048686;28;20033;-72
2022/07/13 08:55:56;;;;;;;88.47;84.10;;;;;;;;;;5048024;28;20047;-73
2022/07/13 08:58:22;;;;;;;200.80;190.82;;;;;;;;;;5048655;28;20032;-74
2022/07/13 09:00:49;;;;;;;123.18;117.00;;;;;;;;;;5049337;28;20025;-73
2022/07/13 09:03:14;;;;;;;149.75;142.23;;;;;;;;;;5048874;28;20040;-74
2022/07/13 09:05:41;;;;;;;157.07;149.27;;;;;;;;;;5048675;28;20041;-73
2022/07/13 09:08:08;;;;;;;162.90;154.60;;;;;;;;;;5048000;28;20033;-73
2022/07/13 09:10:57;;;;;;;106.30;101.07;;;;;;;;;;5047952;28;20091;-73
2022/07/13 09:13:57;;;;;;;190.02;180.55;;;;;;;;;;5048626;28;20040;-72
2022/07/13 09:16:25;;;;;;;175.57;166.88;;;;;;;;;;5015730;28;20494;-73
2022/07/13 09:18:57;;;;;;;176.18;167.38;;;;;;;;;;5048061;28;20040;-73
2022/07/13 09:21:24;;;;;;;113.95;108.30;;;;;;;;;;5048754;28;20114;-72
2022/07/13 09:23:54;;;;;;;137.88;131.05;;;;;;;;;;5047283;28;20036;-73
2022/07/13 09:26:21;;;;;;;208.20;197.82;;;;;;;;;;5063034;28;20037;-73
2022/07/13 09:28:48;;;;;;;177.10;168.35;;;;;;;;;;5047738;28;20139;-72
2022/07/13 09:31:15;;;;;;;165.95;157.65;;;;;;;;;;5049423;28;20644;-73
2022/07/13 09:33:43;;;;;;;150.57;143.10;;;;;;;;;;5048186;28;20029;-72
2022/07/13 09:36:14;;;;;;;203.02;192.95;;;;;;;;;;5050085;28;20490;-74
2022/07/13 09:38:41;;;;;;;169.63;161.13;;;;;;;;;;5049376;28;20166;-72
2022/07/13 09:41:24;;;;;;;160.57;152.52;;;;;;;;;;5050349;28;20112;-74
2022/07/13 09:46:48;;;;;;;155.73;147.88;;;;;;;;;;5039465;28;20068;-73
2022/07/13 09:49:16;;;;;;;86.75;82.45;;;;;;;;;;5045082;28;20043;-74
2022/07/13 09:51:44;;;;;;;87.68;83.30;;;;;;;;;;5049214;28;20029;-72
2022/07/13 09:54:11;;;;;;;99.72;94.78;;;;;;;;;;5046742;28;20025;-71
2022/07/13 09:56:44;;;;;;;111.97;106.38;;;;;;;;;;5046094;28;20029;-69
2022/07/13 09:59:11;;;;;;;68.97;65.50;;;;;;;;;;5043195;28;20025;-73
2022/07/13 10:01:36;;;;;;;75.25;71.50;;;;;;;;;;5047557;28;20029;-72
2022/07/13 10:04:03;;;;;;;54.45;51.72;;;;;;;;;;5047951;28;20068;-69
2022/07/13 10:06:29;;;;;;;67.15;63.80;;;;;;;;;;5042787;28;20128;-69
2022/07/13 10:08:54;;;;;;;62.63;59.47;;;;;;;;;;5048476;28;20463;-72
2022/07/13 10:11:20;;;;;;;68.63;65.20;;;;;;;;;;5044905;28;20128;-72
2022/07/13 10:13:46;;;;;;;64.85;61.60;;;;;;;;;;5042776;28;20037;-73
2022/07/13 10:16:11;;;;;;;53.22;49.55;;;;;;;;;;5050885;28;20362;-71
2022/07/13 10:18:39;;;;;;;59.17;56.17;;;;;;;;;;5049405;28;20392;-73
2022/07/13 10:21:33;;;;;;;59.47;56.47;;;;;;;;;;5048284;28;20086;-72
2022/07/13 10:23:59;;;;;;;67.60;64.07;;;;;;;;;;5048212;28;20041;-74
2022/07/13 10:26:25;;;;;;;55.13;52.35;;;;;;;;;;5048253;28;20047;-74
2022/07/13 10:29:04;;;;;;;68.03;64.63;;;;;;;;;;5048907;28;20021;-73
2022/07/13 10:31:31;;;;;;;88.90;84.47;;;;;;;;;;5047610;28;20102;-72
2022/07/13 10:33:57;;;;;;;81.40;77.35;;;;;;;;;;5048440;28;20047;-73
2022/07/13 10:36:55;;;;;;;78.90;74.97;;;;;;;;;;5047860;28;20600;-73
2022/07/13 10:39:23;;;;;;;102.55;97.53;;;;;;;;;;5046635;28;20232;-73
2022/07/13 10:42:04;;;;;;;121.07;115.10;;;;;;;;;;5047194;28;20067;-71
2022/07/13 10:44:32;;;;;;;126.90;120.63;;;;;;;;;;5047649;28;20040;-71
2022/07/13 10:46:58;;;;;;;106.93;101.65;;;;;;;;;;5048282;28;20025;-73
2022/07/13 10:49:37;;;;;;;119.75;113.85;;;;;;;;;;5048087;28;20565;-70
2022/07/13 10:52:26;;;;;;;126.72;120.47;;;;;;;;;;5048341;28;20040;-71
2022/07/13 10:55:04;;;;;;;117.32;111.53;;;;;;;;;;5038476;28;20094;-71
2022/07/13 10:57:30;;;;;;;116.00;110.20;;;;;;;;;;5046187;28;20060;-71
2022/07/13 11:00:01;;;;;;;107.75;102.45;;;;;;;;;;5048219;28;20119;-71
2022/07/13 11:02:50;;;;;;;107.13;101.82;;;;;;;;;;5047931;28;20037;-72
2022/07/13 11:05:18;;;;;;;107.95;102.63;;;;;;;;;;5048068;28;20541;-72
2022/07/13 11:07:48;;;;;;;115.82;110.13;;;;;;;;;;5047255;28;20044;-72
2022/07/13 11:10:16;;;;;;;108.40;103.05;;;;;;;;;;5048401;28;20108;-70
2022/07/13 11:13:23;;;;;;;110.00;104.60;;;;;;;;;;5046677;28;20028;-70
2022/07/13 11:15:55;;;;;;;112.72;107.13;;;;;;;;;;5022120;28;20040;-74
2022/07/13 11:18:20;;;;;;;122.03;115.97;;;;;;;;;;5047319;28;20433;-73
2022/07/13 11:21:12;;;;;;;115.40;109.70;;;;;;;;;;5048030;28;20033;-74
2022/07/13 11:26:48;;;;;;;127.35;121.05;;;;;;;;;;5046468;28;20098;-71
2022/07/13 11:29:44;;;;;;;132.88;126.28;;;;;;;;;;5047423;28;20178;-73
2022/07/13 11:32:10;;;;;;;110.22;104.78;;;;;;;;;;5046877;28;20490;-71
2022/07/13 11:34:36;;;;;;;112.60;107.03;;;;;;;;;;5046456;28;20094;-76
2022/07/13 11:37:03;;;;;;;77.55;73.72;;;;;;;;;;5046199;28;20363;-73
2022/07/13 11:39:33;;;;;;;149.70;142.25;;;;;;;;;;5047820;28;20025;-72
2022/07/13 11:42:00;;;;;;;64.05;60.85;;;;;;;;;;5046429;28;20033;-72
2022/07/13 11:44:27;;;;;;;98.15;93.30;;;;;;;;;;5048162;28;20025;-72
2022/07/13 11:46:54;;;;;;;72.65;69.05;;;;;;;;;;5046995;28;20340;-71
2022/07/13 11:49:20;;;;;;;73.90;70.22;;;;;;;;;;5042484;28;20054;-74
2022/07/13 11:51:46;;;;;;;102.03;97.03;;;;;;;;;;5046035;28;20523;-73
2022/07/13 11:54:14;;;;;;;86.65;82.38;;;;;;;;;;5046455;28;20025;-70
2022/07/13 11:56:59;;;;;;;93.75;89.10;;;;;;;;;;5047246;28;20039;-72
2022/07/13 11:59:34;;;;;;;95.57;90.88;;;;;;;;;;5045409;28;20234;-72
2022/07/13 12:02:02;;;;;;;114.53;108.90;;;;;;;;;;5047014;28;20028;-72
2022/07/13 12:04:27;;;;;;;95.55;90.82;;;;;;;;;;5046981;28;20048;-71
2022/07/13 12:07:19;;;;;;;108.95;103.57;;;;;;;;;;5046969;28;20032;-72
2022/07/13 12:09:53;;;;;;;73.60;69.95;;;;;;;;;;5045907;28;20068;-72
2022/07/13 12:12:20;;;;;;;99.10;94.22;;;;;;;;;;5045582;28;20029;-72
2022/07/13 12:14:46;;;;;;;59.60;56.60;;;;;;;;;;5046500;28;20037;-72
2022/07/13 12:17:12;;;;;;;61.35;58.28;;;;;;;;;;5046814;28;20446;-72
2022/07/13 12:19:37;;;;;;;115.35;109.65;;;;;;;;;;5046666;28;20032;-73
2022/07/13 12:22:05;;;;;;;87.88;83.53;;;;;;;;;;5043133;28;20128;-71
2022/07/13 12:24:31;;;;;;;170.70;162.30;;;;;;;;;;5043762;28;20025;-71
2022/07/13 12:26:56;;;;;;;189.85;180.50;;;;;;;;;;5044519;28;20115;-70
2022/07/13 12:29:29;;;;;;;191.73;182.27;;;;;;;;;;5043674;28;20025;-71
2022/07/13 12:31:54;;;;;;;199.80;189.98;;;;;;;;;;5045372;28;20021;-72
2022/07/13 12:34:20;;;;;;;176.95;168.25;;;;;;;;;;5045463;28;20619;-72
2022/07/13 12:36:50;;;;;;;145.77;138.48;;;;;;;;;;5046778;28;20630;-72
2022/07/13 12:39:18;;;;;;;164.88;156.75;;;;;;;;;;5045554;28;20043;-71
2022/07/13 12:41:55;;;;;;;137.07;130.27;;;;;;;;;;5045054;28;20059;-74
2022/07/13 12:44:26;;;;;;;149.00;141.63;;;;;;;;;;5046002;28;20895;-73
2022/07/13 12:46:58;;;;;;;101.82;96.78;;;;;;;;;;5044554;28;20390;-74
2022/07/13 12:49:36;;;;;;;88.88;84.45;;;;;;;;;;5045054;28;20044;-73
2022/07/13 12:52:12;;;;;;;92.53;87.95;;;;;;;;;;5045908;28;20105;-72
2022/07/13 12:54:45;;;;;;;63.70;60.50;;;;;;;;;;5044348;28;20444;-74
2022/07/13 12:57:22;;;;;;;92.07;87.50;;;;;;;;;;5045515;28;20041;-73
2022/07/13 13:00:13;;;;;;;76.20;72.40;;;;;;;;;;5047787;28;20394;-74
2022/07/13 13:02:39;;;;;;;91.72;87.18;;;;;;;;;;5048056;28;20466;-74
2022/07/13 13:05:07;;;;;;;85.90;81.65;;;;;;;;;;5048577;28;20029;-72
2022/07/13 13:07:36;;;;;;;95.88;91.15;;;;;;;;;;5047338;28;20175;-73
2022/07/13 13:10:02;;;;;;;;;;;;;;;;;;5049181;28;20087;-73
2022/07/13 13:12:28;;;;;;;67.40;64.03;;;;;;;;;;5048901;28;19909;-73
2022/07/13 13:14:53;;;;;;;98.97;94.10;;;;;;;;;;5048944;28;20044;-71
2022/07/13 13:17:19;;;;;;;163.60;155.55;;;;;;;;;;5047590;28;20462;-72
2022/07/13 13:19:44;;;;;;;254.35;241.95;;;;;;;;;;5048716;28;20678;-73
2022/07/13 13:22:09;;;;;;;284.10;270.08;;;;;;;;;;5048668;28;20114;-74
2022/07/13 13:24:35;;;;;;;258.65;246.02;;;;;;;;;;5047160;28;20056;-72
2022/07/13 13:27:00;;;;;;;269.35;256.15;;;;;;;;;;5047051;28;20037;-74
2022/07/13 13:32:11;;;;;;;167.00;158.65;;;;;;;;;;5047535;28;20060;-75
2022/07/13 13:34:37;;;;;;;310.45;295.00;;;;;;;;;;5045534;28;20029;-70
2022/07/13 13:37:02;;;;;;;337.50;320.50;;;;;;;;;;5048441;28;20097;-75
2022/07/13 13:39:28;;;;;;;305.33;290.20;;;;;;;;;;5048186;28;20029;-73
2022/07/13 13:41:53;;;;;;;299.83;284.85;;;;;;;;;;5048452;28;20063;-72
2022/07/13 13:44:19;;;;;;;301.83;286.73;;;;;;;;;;5030104;28;20618;-74
2022/07/13 13:46:45;;;;;;;310.50;295.05;;;;;;;;;;5048580;28;20033;-74
2022/07/13 13:49:11;;;;;;;286.30;272.08;;;;;;;;;;5048793;28;20037;-76
2022/07/13 13:51:37;;;;;;;139.15;132.20;;;;;;;;;;5047691;28;20040;-74
2022/07/13 13:54:02;;;;;;;226.98;215.70;;;;;;;;;;5047354;28;20024;-74
2022/07/13 13:56:28;;;;;;;214.45;203.75;;;;;;;;;;5048331;28;20541;-76
2022/07/13 13:58:53;;;;;;;139.80;132.82;;;;;;;;;;5048468;28;20029;-75
2022/07/13 14:01:18;;;;;;;260.98;248.10;;;;;;;;;;5047509;28;20040;-74
2022/07/13 14:03:44;;;;;;;235.02;223.38;;;;;;;;;;5046778;28;20047;-74
2022/07/13 14:06:12;;;;;;;184.35;175.10;;;;;;;;;;5043844;28;20114;-74
2022/07/13 14:08:38;;;;;;;246.25;233.98;;;;;;;;;;5046837;28;20107;-75
2022/07/13 14:11:04;;;;;;;131.48;124.88;;;;;;;;;;5047642;28;20029;-77
2022/07/13 14:13:29;;;;;;;276.95;263.27;;;;;;;;;;5046657;28;20040;-74
2022/07/13 14:15:54;;;;;;;241.15;229.23;;;;;;;;;;5047747;28;20033;-75